sensor_id;sensor_type;location;lat;lon;timestamp;P1;durP1;ratioP1;P2;durP2;ratioP2
37787;SDS011;23627;53.302;-6.362;2023-05-10T00:02:09;5.55;;;1.10;;
37787;SDS011;23627;53.302;-6.362;2023-05-10T00:04:34;6.70;;;0.90;;
37787;SDS011;23627;53.302;-6.362;2023-05-10T00:07:00;3.25;;;0.80;;
37787;SDS011;23627;53.302;-6.362;2023-05-10T00:09:26;3.30;;;0.85;;
37787;SDS011;23627;53.302;-6.362;2023-05-10T00:11:52;3.55;;;0.80;;
37787;SDS011;23627;53.302;-6.362;2023-05-10T00:14:18;3.47;;;0.95;;
37787;SDS011;23627;53.302;-6.362;2023-05-10T00:16:44;4.25;;;1.30;;
37787;SDS011;23627;53.302;-6.362;2023-05-10T00:19:10;3.05;;;1.00;;
37787;SDS011;23627;53.302;-6.362;2023-05-10T00:21:36;3.45;;;0.82;;
37787;SDS011;23627;53.302;-6.362;2023-05-10T00:24:01;3.22;;;0.98;;
37787;SDS011;23627;53.302;-6.362;2023-05-10T00:26:27;4.32;;;0.90;;
37787;SDS011;23627;53.302;-6.362;2023-05-10T00:28:53;4.15;;;1.00;;
37787;SDS011;23627;53.302;-6.362;2023-05-10T00:31:19;4.32;;;1.00;;
37787;SDS011;23627;53.302;-6.362;2023-05-10T00:33:45;2.85;;;0.70;;
37787;SDS011;23627;53.302;-6.362;2023-05-10T00:36:11;7.22;;;1.30;;
37787;SDS011;23627;53.302;-6.362;2023-05-10T00:38:37;2.90;;;0.95;;
37787;SDS011;23627;53.302;-6.362;2023-05-10T00:41:03;2.65;;;0.80;;
37787;SDS011;23627;53.302;-6.362;2023-05-10T00:43:31;3.38;;;0.70;;
37787;SDS011;23627;53.302;-6.362;2023-05-10T00:45:57;3.78;;;0.93;;
37787;SDS011;23627;53.302;-6.362;2023-05-10T00:48:23;4.68;;;1.25;;
37787;SDS011;23627;53.302;-6.362;2023-05-10T00:50:49;2.55;;;0.80;;
37787;SDS011;23627;53.302;-6.362;2023-05-10T00:53:15;3.55;;;1.20;;
37787;SDS011;23627;53.302;-6.362;2023-05-10T00:55:41;2.90;;;1.02;;
37787;SDS011;23627;53.302;-6.362;2023-05-10T00:58:08;3.65;;;0.90;;
37787;SDS011;23627;53.302;-6.362;2023-05-10T01:00:34;3.55;;;0.70;;
37787;SDS011;23627;53.302;-6.362;2023-05-10T01:03:02;4.28;;;1.00;;
37787;SDS011;23627;53.302;-6.362;2023-05-10T01:05:28;2.47;;;0.75;;
37787;SDS011;23627;53.302;-6.362;2023-05-10T01:07:53;3.95;;;0.98;;
37787;SDS011;23627;53.302;-6.362;2023-05-10T01:10:19;4.78;;;0.90;;
37787;SDS011;23627;53.302;-6.362;2023-05-10T01:12:46;3.25;;;0.80;;
37787;SDS011;23627;53.302;-6.362;2023-05-10T01:15:12;3.83;;;0.95;;
37787;SDS011;23627;53.302;-6.362;2023-05-10T01:17:40;5.68;;;0.90;;
37787;SDS011;23627;53.302;-6.362;2023-05-10T01:20:09;4.75;;;0.90;;
37787;SDS011;23627;53.302;-6.362;2023-05-10T01:34:10;3.08;;;0.90;;
37787;SDS011;23627;53.302;-6.362;2023-05-10T01:39:24;2.00;;;0.50;;
37787;SDS011;23627;53.302;-6.362;2023-05-10T01:42:16;2.10;;;0.60;;
37787;SDS011;23627;53.302;-6.362;2023-05-10T01:47:44;2.10;;;0.70;;
37787;SDS011;23627;53.302;-6.362;2023-05-10T01:50:17;2.40;;;0.70;;
37787;SDS011;23627;53.302;-6.362;2023-05-10T01:52:49;2.57;;;0.63;;
37787;SDS011;23627;53.302;-6.362;2023-05-10T01:55:20;1.67;;;0.50;;
37787;SDS011;23627;53.302;-6.362;2023-05-10T01:57:48;2.15;;;0.57;;
37787;SDS011;23627;53.302;-6.362;2023-05-10T02:00:21;3.28;;;0.77;;
37787;SDS011;23627;53.302;-6.362;2023-05-10T02:02:48;2.53;;;0.60;;
37787;SDS011;23627;53.302;-6.362;2023-05-10T02:05:16;2.95;;;0.77;;
37787;SDS011;23627;53.302;-6.362;2023-05-10T02:07:45;4.72;;;0.70;;
37787;SDS011;23627;53.302;-6.362;2023-05-10T02:10:12;4.43;;;0.63;;
37787;SDS011;23627;53.302;-6.362;2023-05-10T02:12:41;2.10;;;0.90;;
37787;SDS011;23627;53.302;-6.362;2023-05-10T02:15:08;4.63;;;0.90;;
37787;SDS011;23627;53.302;-6.362;2023-05-10T02:17:37;3.63;;;0.80;;
37787;SDS011;23627;53.302;-6.362;2023-05-10T02:20:04;3.83;;;1.02;;
37787;SDS011;23627;53.302;-6.362;2023-05-10T02:22:32;4.95;;;0.77;;
37787;SDS011;23627;53.302;-6.362;2023-05-10T02:25:00;4.50;;;0.98;;
37787;SDS011;23627;53.302;-6.362;2023-05-10T02:27:28;2.47;;;0.60;;
37787;SDS011;23627;53.302;-6.362;2023-05-10T02:29:55;2.90;;;0.70;;
37787;SDS011;23627;53.302;-6.362;2023-05-10T02:32:24;3.28;;;1.17;;
37787;SDS011;23627;53.302;-6.362;2023-05-10T02:34:52;3.65;;;0.80;;
37787;SDS011;23627;53.302;-6.362;2023-05-10T02:37:19;2.97;;;0.70;;
37787;SDS011;23627;53.302;-6.362;2023-05-10T02:39:49;3.10;;;0.80;;
37787;SDS011;23627;53.302;-6.362;2023-05-10T02:42:18;2.95;;;0.98;;
37787;SDS011;23627;53.302;-6.362;2023-05-10T02:44:48;3.35;;;0.70;;
37787;SDS011;23627;53.302;-6.362;2023-05-10T02:47:18;3.50;;;0.75;;
37787;SDS011;23627;53.302;-6.362;2023-05-10T02:49:44;3.00;;;0.80;;
37787;SDS011;23627;53.302;-6.362;2023-05-10T02:52:10;4.05;;;0.60;;
37787;SDS011;23627;53.302;-6.362;2023-05-10T02:54:45;4.50;;;0.90;;
37787;SDS011;23627;53.302;-6.362;2023-05-10T02:57:16;3.63;;;0.75;;
37787;SDS011;23627;53.302;-6.362;2023-05-10T02:59:45;5.80;;;0.93;;
37787;SDS011;23627;53.302;-6.362;2023-05-10T03:02:14;2.05;;;0.63;;
37787;SDS011;23627;53.302;-6.362;2023-05-10T03:04:40;3.60;;;0.70;;
37787;SDS011;23627;53.302;-6.362;2023-05-10T03:07:06;3.90;;;0.73;;
37787;SDS011;23627;53.302;-6.362;2023-05-10T03:09:32;3.13;;;0.80;;
37787;SDS011;23627;53.302;-6.362;2023-05-10T03:12:15;5.38;;;1.42;;
37787;SDS011;23627;53.302;-6.362;2023-05-10T03:20:48;3.97;;;0.63;;
37787;SDS011;23627;53.302;-6.362;2023-05-10T03:23:12;2.75;;;0.60;;
37787;SDS011;23627;53.302;-6.362;2023-05-10T03:25:39;4.70;;;1.13;;
37787;SDS011;23627;53.302;-6.362;2023-05-10T03:28:06;2.45;;;0.60;;
37787;SDS011;23627;53.302;-6.362;2023-05-10T03:30:32;2.80;;;0.65;;
37787;SDS011;23627;53.302;-6.362;2023-05-10T03:33:03;1.90;;;0.60;;
37787;SDS011;23627;53.302;-6.362;2023-05-10T03:35:31;2.70;;;0.63;;
37787;SDS011;23627;53.302;-6.362;2023-05-10T03:37:57;3.17;;;0.82;;
37787;SDS011;23627;53.302;-6.362;2023-05-10T03:40:22;5.13;;;1.02;;
37787;SDS011;23627;53.302;-6.362;2023-05-10T03:42:49;2.83;;;0.70;;
37787;SDS011;23627;53.302;-6.362;2023-05-10T03:45:15;5.00;;;0.80;;
37787;SDS011;23627;53.302;-6.362;2023-05-10T03:47:41;2.65;;;0.60;;
37787;SDS011;23627;53.302;-6.362;2023-05-10T03:50:07;4.43;;;0.80;;
37787;SDS011;23627;53.302;-6.362;2023-05-10T03:52:33;3.90;;;0.90;;
37787;SDS011;23627;53.302;-6.362;2023-05-10T03:54:58;2.10;;;0.65;;
37787;SDS011;23627;53.302;-6.362;2023-05-10T03:57:24;2.55;;;0.68;;
37787;SDS011;23627;53.302;-6.362;2023-05-10T03:59:50;3.95;;;0.93;;
37787;SDS011;23627;53.302;-6.362;2023-05-10T04:02:16;3.03;;;0.90;;
37787;SDS011;23627;53.302;-6.362;2023-05-10T04:04:41;4.25;;;0.80;;
37787;SDS011;23627;53.302;-6.362;2023-05-10T04:07:13;3.30;;;0.68;;
37787;SDS011;23627;53.302;-6.362;2023-05-10T04:09:39;4.13;;;0.70;;
37787;SDS011;23627;53.302;-6.362;2023-05-10T04:12:05;3.20;;;0.85;;
37787;SDS011;23627;53.302;-6.362;2023-05-10T04:14:31;4.07;;;1.08;;
37787;SDS011;23627;53.302;-6.362;2023-05-10T04:17:02;2.75;;;0.63;;
37787;SDS011;23627;53.302;-6.362;2023-05-10T04:19:31;3.63;;;0.70;;
37787;SDS011;23627;53.302;-6.362;2023-05-10T04:21:57;4.53;;;0.90;;
37787;SDS011;23627;53.302;-6.362;2023-05-10T04:24:23;3.92;;;0.82;;
37787;SDS011;23627;53.302;-6.362;2023-05-10T04:26:53;4.65;;;0.80;;
37787;SDS011;23627;53.302;-6.362;2023-05-10T04:29:20;2.60;;;0.82;;
37787;SDS011;23627;53.302;-6.362;2023-05-10T04:31:46;2.15;;;0.70;;
37787;SDS011;23627;53.302;-6.362;2023-05-10T04:34:11;3.22;;;0.52;;
37787;SDS011;23627;53.302;-6.362;2023-05-10T04:36:37;2.53;;;0.77;;
37787;SDS011;23627;53.302;-6.362;2023-05-10T04:39:03;3.72;;;0.82;;
37787;SDS011;23627;53.302;-6.362;2023-05-10T04:41:29;4.85;;;1.00;;
37787;SDS011;23627;53.302;-6.362;2023-05-10T04:43:55;3.38;;;0.93;;
37787;SDS011;23627;53.302;-6.362;2023-05-10T04:46:21;2.63;;;0.57;;
37787;SDS011;23627;53.302;-6.362;2023-05-10T04:48:47;4.20;;;0.80;;
37787;SDS011;23627;53.302;-6.362;2023-05-10T04:51:13;3.85;;;0.65;;
37787;SDS011;23627;53.302;-6.362;2023-05-10T04:53:39;5.20;;;1.30;;
37787;SDS011;23627;53.302;-6.362;2023-05-10T04:56:04;2.90;;;0.52;;
37787;SDS011;23627;53.302;-6.362;2023-05-10T04:58:31;3.58;;;0.60;;
37787;SDS011;23627;53.302;-6.362;2023-05-10T05:00:57;3.53;;;0.70;;
37787;SDS011;23627;53.302;-6.362;2023-05-10T05:03:22;1.52;;;0.55;;
37787;SDS011;23627;53.302;-6.362;2023-05-10T05:05:48;2.05;;;0.47;;
37787;SDS011;23627;53.302;-6.362;2023-05-10T05:08:14;3.47;;;0.63;;
37787;SDS011;23627;53.302;-6.362;2023-05-10T05:10:39;3.53;;;0.70;;
37787;SDS011;23627;53.302;-6.362;2023-05-10T05:13:05;2.47;;;0.52;;
37787;SDS011;23627;53.302;-6.362;2023-05-10T05:15:31;4.03;;;0.63;;
37787;SDS011;23627;53.302;-6.362;2023-05-10T05:17:57;3.33;;;0.70;;
37787;SDS011;23627;53.302;-6.362;2023-05-10T05:20:22;2.53;;;0.47;;
37787;SDS011;23627;53.302;-6.362;2023-05-10T05:22:48;1.98;;;0.70;;
37787;SDS011;23627;53.302;-6.362;2023-05-10T05:25:14;2.72;;;0.65;;
37787;SDS011;23627;53.302;-6.362;2023-05-10T05:27:40;4.22;;;0.75;;
37787;SDS011;23627;53.302;-6.362;2023-05-10T05:30:06;3.05;;;0.70;;
37787;SDS011;23627;53.302;-6.362;2023-05-10T05:32:33;2.97;;;0.60;;
37787;SDS011;23627;53.302;-6.362;2023-05-10T05:34:59;3.38;;;0.68;;
37787;SDS011;23627;53.302;-6.362;2023-05-10T05:37:25;2.70;;;0.60;;
37787;SDS011;23627;53.302;-6.362;2023-05-10T05:39:51;2.42;;;0.70;;
37787;SDS011;23627;53.302;-6.362;2023-05-10T05:42:17;4.05;;;0.60;;
37787;SDS011;23627;53.302;-6.362;2023-05-10T05:44:43;2.83;;;0.60;;
37787;SDS011;23627;53.302;-6.362;2023-05-10T05:47:09;3.35;;;0.50;;
37787;SDS011;23627;53.302;-6.362;2023-05-10T05:49:35;1.70;;;0.40;;
37787;SDS011;23627;53.302;-6.362;2023-05-10T05:52:01;2.92;;;0.50;;
37787;SDS011;23627;53.302;-6.362;2023-05-10T05:54:28;3.58;;;0.50;;
37787;SDS011;23627;53.302;-6.362;2023-05-10T05:56:55;1.98;;;0.63;;
37787;SDS011;23627;53.302;-6.362;2023-05-10T05:59:24;3.55;;;0.60;;
37787;SDS011;23627;53.302;-6.362;2023-05-10T06:01:50;2.28;;;0.50;;
37787;SDS011;23627;53.302;-6.362;2023-05-10T06:04:16;2.28;;;0.57;;
37787;SDS011;23627;53.302;-6.362;2023-05-10T06:06:42;3.60;;;0.50;;
37787;SDS011;23627;53.302;-6.362;2023-05-10T06:09:08;4.22;;;0.55;;
37787;SDS011;23627;53.302;-6.362;2023-05-10T06:11:34;3.15;;;0.50;;
37787;SDS011;23627;53.302;-6.362;2023-05-10T06:14:01;1.67;;;0.57;;
37787;SDS011;23627;53.302;-6.362;2023-05-10T06:16:29;2.95;;;0.43;;
37787;SDS011;23627;53.302;-6.362;2023-05-10T06:18:55;3.03;;;0.50;;
37787;SDS011;23627;53.302;-6.362;2023-05-10T06:21:21;2.05;;;0.40;;
37787;SDS011;23627;53.302;-6.362;2023-05-10T06:23:47;3.95;;;0.60;;
37787;SDS011;23627;53.302;-6.362;2023-05-10T06:26:13;2.92;;;0.50;;
37787;SDS011;23627;53.302;-6.362;2023-05-10T06:28:39;2.35;;;0.45;;
37787;SDS011;23627;53.302;-6.362;2023-05-10T06:31:06;3.50;;;0.55;;
37787;SDS011;23627;53.302;-6.362;2023-05-10T06:33:32;1.88;;;0.45;;
37787;SDS011;23627;53.302;-6.362;2023-05-10T06:35:58;2.58;;;0.47;;
37787;SDS011;23627;53.302;-6.362;2023-05-10T06:38:24;2.00;;;0.57;;
37787;SDS011;23627;53.302;-6.362;2023-05-10T06:40:50;2.65;;;0.50;;
37787;SDS011;23627;53.302;-6.362;2023-05-10T06:43:16;3.30;;;0.40;;
37787;SDS011;23627;53.302;-6.362;2023-05-10T06:45:42;2.15;;;0.32;;
37787;SDS011;23627;53.302;-6.362;2023-05-10T06:48:08;1.67;;;0.50;;
37787;SDS011;23627;53.302;-6.362;2023-05-10T06:50:33;1.80;;;0.40;;
37787;SDS011;23627;53.302;-6.362;2023-05-10T06:53:00;1.45;;;0.40;;
37787;SDS011;23627;53.302;-6.362;2023-05-10T06:55:27;2.38;;;0.50;;
37787;SDS011;23627;53.302;-6.362;2023-05-10T06:57:53;1.83;;;0.50;;
37787;SDS011;23627;53.302;-6.362;2023-05-10T07:00:19;1.35;;;0.40;;
37787;SDS011;23627;53.302;-6.362;2023-05-10T07:02:45;2.22;;;0.40;;
37787;SDS011;23627;53.302;-6.362;2023-05-10T07:05:32;2.65;;;0.60;;
37787;SDS011;23627;53.302;-6.362;2023-05-10T07:11:57;2.35;;;0.50;;
37787;SDS011;23627;53.302;-6.362;2023-05-10T07:14:23;1.80;;;0.30;;
37787;SDS011;23627;53.302;-6.362;2023-05-10T07:19:33;1.80;;;0.38;;
37787;SDS011;23627;53.302;-6.362;2023-05-10T07:22:00;2.75;;;0.43;;
37787;SDS011;23627;53.302;-6.362;2023-05-10T07:24:26;2.17;;;0.47;;
37787;SDS011;23627;53.302;-6.362;2023-05-10T07:26:51;2.05;;;0.30;;
37787;SDS011;23627;53.302;-6.362;2023-05-10T07:29:17;2.30;;;0.50;;
37787;SDS011;23627;53.302;-6.362;2023-05-10T07:31:43;1.25;;;0.20;;
37787;SDS011;23627;53.302;-6.362;2023-05-10T07:34:09;2.17;;;0.50;;
37787;SDS011;23627;53.302;-6.362;2023-05-10T07:36:35;1.65;;;0.30;;
37787;SDS011;23627;53.302;-6.362;2023-05-10T07:39:00;1.42;;;0.40;;
37787;SDS011;23627;53.302;-6.362;2023-05-10T07:41:27;1.23;;;0.28;;
37787;SDS011;23627;53.302;-6.362;2023-05-10T07:43:52;0.98;;;0.25;;
37787;SDS011;23627;53.302;-6.362;2023-05-10T07:46:18;0.80;;;0.30;;
37787;SDS011;23627;53.302;-6.362;2023-05-10T07:48:46;1.38;;;0.30;;
37787;SDS011;23627;53.302;-6.362;2023-05-10T07:51:12;1.58;;;0.40;;
37787;SDS011;23627;53.302;-6.362;2023-05-10T07:53:38;2.17;;;0.30;;
37787;SDS011;23627;53.302;-6.362;2023-05-10T07:56:26;1.75;;;0.20;;
37787;SDS011;23627;53.302;-6.362;2023-05-10T07:58:57;1.60;;;0.30;;
37787;SDS011;23627;53.302;-6.362;2023-05-10T08:01:24;1.73;;;0.40;;
37787;SDS011;23627;53.302;-6.362;2023-05-10T08:03:50;2.97;;;0.52;;
37787;SDS011;23627;53.302;-6.362;2023-05-10T08:06:18;2.72;;;0.40;;
37787;SDS011;23627;53.302;-6.362;2023-05-10T08:08:45;0.93;;;0.20;;
37787;SDS011;23627;53.302;-6.362;2023-05-10T08:11:15;2.65;;;0.40;;
37787;SDS011;23627;53.302;-6.362;2023-05-10T08:13:45;2.03;;;0.30;;
37787;SDS011;23627;53.302;-6.362;2023-05-10T08:16:11;1.15;;;0.45;;
37787;SDS011;23627;53.302;-6.362;2023-05-10T08:18:37;0.40;;;0.10;;
37787;SDS011;23627;53.302;-6.362;2023-05-10T08:21:03;1.42;;;0.40;;
37787;SDS011;23627;53.302;-6.362;2023-05-10T08:23:29;1.73;;;0.30;;
37787;SDS011;23627;53.302;-6.362;2023-05-10T08:25:55;1.90;;;0.30;;
37787;SDS011;23627;53.302;-6.362;2023-05-10T08:28:21;3.05;;;0.38;;
37787;SDS011;23627;53.302;-6.362;2023-05-10T08:30:49;1.15;;;0.20;;
37787;SDS011;23627;53.302;-6.362;2023-05-10T08:33:15;1.25;;;0.30;;
37787;SDS011;23627;53.302;-6.362;2023-05-10T08:35:42;1.38;;;0.20;;
37787;SDS011;23627;53.302;-6.362;2023-05-10T08:38:08;1.00;;;0.40;;
37787;SDS011;23627;53.302;-6.362;2023-05-10T08:40:34;1.38;;;0.43;;
37787;SDS011;23627;53.302;-6.362;2023-05-10T08:45:32;2.28;;;0.50;;
37787;SDS011;23627;53.302;-6.362;2023-05-10T08:48:02;2.25;;;0.40;;
37787;SDS011;23627;53.302;-6.362;2023-05-10T08:50:30;0.40;;;0.10;;
37787;SDS011;23627;53.302;-6.362;2023-05-10T08:52:57;0.65;;;0.30;;
37787;SDS011;23627;53.302;-6.362;2023-05-10T08:55:26;1.15;;;0.32;;
37787;SDS011;23627;53.302;-6.362;2023-05-10T08:57:53;2.25;;;0.40;;
37787;SDS011;23627;53.302;-6.362;2023-05-10T09:00:18;1.13;;;0.30;;
37787;SDS011;23627;53.302;-6.362;2023-05-10T09:02:45;0.45;;;0.10;;
37787;SDS011;23627;53.302;-6.362;2023-05-10T09:05:12;0.85;;;0.20;;
37787;SDS011;23627;53.302;-6.362;2023-05-10T09:07:37;2.08;;;0.40;;
37787;SDS011;23627;53.302;-6.362;2023-05-10T09:10:04;1.10;;;0.20;;
37787;SDS011;23627;53.302;-6.362;2023-05-10T09:12:30;1.35;;;0.30;;
37787;SDS011;23627;53.302;-6.362;2023-05-10T09:14:57;0.90;;;0.20;;
37787;SDS011;23627;53.302;-6.362;2023-05-10T09:17:25;1.40;;;0.20;;
37787;SDS011;23627;53.302;-6.362;2023-05-10T09:20:01;0.95;;;0.20;;
37787;SDS011;23627;53.302;-6.362;2023-05-10T09:22:32;0.90;;;0.20;;
37787;SDS011;23627;53.302;-6.362;2023-05-10T09:25:11;1.63;;;0.20;;
37787;SDS011;23627;53.302;-6.362;2023-05-10T09:27:40;1.60;;;0.35;;
37787;SDS011;23627;53.302;-6.362;2023-05-10T09:30:09;1.50;;;0.50;;
37787;SDS011;23627;53.302;-6.362;2023-05-10T09:32:39;1.48;;;0.32;;
37787;SDS011;23627;53.302;-6.362;2023-05-10T09:35:13;1.60;;;0.30;;
37787;SDS011;23627;53.302;-6.362;2023-05-10T09:37:44;0.60;;;0.10;;
37787;SDS011;23627;53.302;-6.362;2023-05-10T09:40:14;0.90;;;0.20;;
37787;SDS011;23627;53.302;-6.362;2023-05-10T09:42:53;1.42;;;0.20;;
37787;SDS011;23627;53.302;-6.362;2023-05-10T09:45:22;1.70;;;0.50;;
37787;SDS011;23627;53.302;-6.362;2023-05-10T09:47:49;0.90;;;0.25;;
37787;SDS011;23627;53.302;-6.362;2023-05-10T09:50:14;0.73;;;0.20;;
37787;SDS011;23627;53.302;-6.362;2023-05-10T09:52:48;2.25;;;0.30;;
37787;SDS011;23627;53.302;-6.362;2023-05-10T09:55:19;1.70;;;0.22;;
37787;SDS011;23627;53.302;-6.362;2023-05-10T09:57:47;0.68;;;0.20;;
37787;SDS011;23627;53.302;-6.362;2023-05-10T10:00:17;0.82;;;0.20;;
37787;SDS011;23627;53.302;-6.362;2023-05-10T10:02:45;0.80;;;0.20;;
37787;SDS011;23627;53.302;-6.362;2023-05-10T10:05:33;0.80;;;0.20;;
37787;SDS011;23627;53.302;-6.362;2023-05-10T10:08:03;1.15;;;0.35;;
37787;SDS011;23627;53.302;-6.362;2023-05-10T10:10:30;1.70;;;0.30;;
37787;SDS011;23627;53.302;-6.362;2023-05-10T10:12:57;0.57;;;0.10;;
37787;SDS011;23627;53.302;-6.362;2023-05-10T10:15:24;3.40;;;0.30;;
37787;SDS011;23627;53.302;-6.362;2023-05-10T10:17:51;0.90;;;0.20;;
37787;SDS011;23627;53.302;-6.362;2023-05-10T10:20:17;0.70;;;0.25;;
37787;SDS011;23627;53.302;-6.362;2023-05-10T10:22:44;1.67;;;0.20;;
37787;SDS011;23627;53.302;-6.362;2023-05-10T10:25:11;1.35;;;0.30;;
37787;SDS011;23627;53.302;-6.362;2023-05-10T10:30:25;0.75;;;0.20;;
37787;SDS011;23627;53.302;-6.362;2023-05-10T10:33:26;1.35;;;0.30;;
37787;SDS011;23627;53.302;-6.362;2023-05-10T10:36:00;0.93;;;0.30;;
37787;SDS011;23627;53.302;-6.362;2023-05-10T10:41:27;1.83;;;0.28;;
37787;SDS011;23627;53.302;-6.362;2023-05-10T10:47:04;1.60;;;0.30;;
37787;SDS011;23627;53.302;-6.362;2023-05-10T11:02:48;1.15;;;0.25;;
37787;SDS011;23627;53.302;-6.362;2023-05-10T11:08:13;0.77;;;0.20;;
37787;SDS011;23627;53.302;-6.362;2023-05-10T11:11:06;0.98;;;0.20;;
37787;SDS011;23627;53.302;-6.362;2023-05-10T11:16:09;0.57;;;0.20;;
37787;SDS011;23627;53.302;-6.362;2023-05-10T11:19:07;1.00;;;0.10;;
37787;SDS011;23627;53.302;-6.362;2023-05-10T11:21:44;1.45;;;0.20;;
37787;SDS011;23627;53.302;-6.362;2023-05-10T11:24:36;1.45;;;0.15;;
37787;SDS011;23627;53.302;-6.362;2023-05-10T11:27:02;1.15;;;0.20;;
37787;SDS011;23627;53.302;-6.362;2023-05-10T11:29:28;0.98;;;0.25;;
37787;SDS011;23627;53.302;-6.362;2023-05-10T11:31:56;1.30;;;0.20;;
37787;SDS011;23627;53.302;-6.362;2023-05-10T11:34:24;1.30;;;0.30;;
37787;SDS011;23627;53.302;-6.362;2023-05-10T11:36:52;2.55;;;0.40;;
37787;SDS011;23627;53.302;-6.362;2023-05-10T11:39:19;1.15;;;0.30;;
37787;SDS011;23627;53.302;-6.362;2023-05-10T11:41:48;1.80;;;0.20;;
37787;SDS011;23627;53.302;-6.362;2023-05-10T11:44:14;0.93;;;0.20;;
37787;SDS011;23627;53.302;-6.362;2023-05-10T11:46:40;2.08;;;0.40;;
37787;SDS011;23627;53.302;-6.362;2023-05-10T11:49:06;1.33;;;0.30;;
37787;SDS011;23627;53.302;-6.362;2023-05-10T11:51:33;1.00;;;0.30;;
37787;SDS011;23627;53.302;-6.362;2023-05-10T11:54:06;0.77;;;0.30;;
37787;SDS011;23627;53.302;-6.362;2023-05-10T11:56:39;0.63;;;0.20;;
37787;SDS011;23627;53.302;-6.362;2023-05-10T11:59:05;1.08;;;0.30;;
37787;SDS011;23627;53.302;-6.362;2023-05-10T12:01:31;1.23;;;0.40;;
37787;SDS011;23627;53.302;-6.362;2023-05-10T12:03:57;1.73;;;0.38;;
37787;SDS011;23627;53.302;-6.362;2023-05-10T12:06:28;1.35;;;0.30;;
37787;SDS011;23627;53.302;-6.362;2023-05-10T12:08:56;0.43;;;0.20;;
37787;SDS011;23627;53.302;-6.362;2023-05-10T12:11:24;1.83;;;0.30;;
37787;SDS011;23627;53.302;-6.362;2023-05-10T12:13:53;2.75;;;0.40;;
37787;SDS011;23627;53.302;-6.362;2023-05-10T12:18:48;1.00;;;0.30;;
37787;SDS011;23627;53.302;-6.362;2023-05-10T12:21:19;0.77;;;0.30;;
37787;SDS011;23627;53.302;-6.362;2023-05-10T12:23:46;1.25;;;0.30;;
37787;SDS011;23627;53.302;-6.362;2023-05-10T12:26:28;1.33;;;0.28;;
37787;SDS011;23627;53.302;-6.362;2023-05-10T12:28:54;0.70;;;0.30;;
37787;SDS011;23627;53.302;-6.362;2023-05-10T12:31:48;1.70;;;0.38;;
37787;SDS011;23627;53.302;-6.362;2023-05-10T12:36:52;1.52;;;0.30;;
37787;SDS011;23627;53.302;-6.362;2023-05-10T12:39:18;0.98;;;0.20;;
37787;SDS011;23627;53.302;-6.362;2023-05-10T12:41:43;2.03;;;0.30;;
37787;SDS011;23627;53.302;-6.362;2023-05-10T12:44:09;1.13;;;0.30;;
37787;SDS011;23627;53.302;-6.362;2023-05-10T12:46:35;0.77;;;0.30;;
37787;SDS011;23627;53.302;-6.362;2023-05-10T12:49:01;1.30;;;0.38;;
37787;SDS011;23627;53.302;-6.362;2023-05-10T12:51:26;0.52;;;0.30;;
37787;SDS011;23627;53.302;-6.362;2023-05-10T12:53:52;1.33;;;0.40;;
37787;SDS011;23627;53.302;-6.362;2023-05-10T12:56:19;1.75;;;0.40;;
37787;SDS011;23627;53.302;-6.362;2023-05-10T12:58:45;1.08;;;0.40;;
37787;SDS011;23627;53.302;-6.362;2023-05-10T13:01:14;1.20;;;0.40;;
37787;SDS011;23627;53.302;-6.362;2023-05-10T13:03:40;0.80;;;0.32;;
37787;SDS011;23627;53.302;-6.362;2023-05-10T13:06:06;1.67;;;0.38;;
37787;SDS011;23627;53.302;-6.362;2023-05-10T13:08:34;1.88;;;0.40;;
37787;SDS011;23627;53.302;-6.362;2023-05-10T13:11:00;0.93;;;0.32;;
37787;SDS011;23627;53.302;-6.362;2023-05-10T13:13:27;1.50;;;0.32;;
37787;SDS011;23627;53.302;-6.362;2023-05-10T13:15:52;0.57;;;0.20;;
37787;SDS011;23627;53.302;-6.362;2023-05-10T13:18:18;0.80;;;0.20;;
37787;SDS011;23627;53.302;-6.362;2023-05-10T13:20:44;0.52;;;0.20;;
37787;SDS011;23627;53.302;-6.362;2023-05-10T13:23:10;0.98;;;0.20;;
37787;SDS011;23627;53.302;-6.362;2023-05-10T13:25:36;0.75;;;0.35;;
37787;SDS011;23627;53.302;-6.362;2023-05-10T13:28:01;1.45;;;0.35;;
37787;SDS011;23627;53.302;-6.362;2023-05-10T13:30:27;1.33;;;0.35;;
37787;SDS011;23627;53.302;-6.362;2023-05-10T13:32:54;0.75;;;0.20;;
37787;SDS011;23627;53.302;-6.362;2023-05-10T13:35:20;0.40;;;0.20;;
37787;SDS011;23627;53.302;-6.362;2023-05-10T13:37:45;1.17;;;0.40;;
37787;SDS011;23627;53.302;-6.362;2023-05-10T13:40:11;1.55;;;0.40;;
37787;SDS011;23627;53.302;-6.362;2023-05-10T13:42:37;2.03;;;0.50;;
37787;SDS011;23627;53.302;-6.362;2023-05-10T13:45:03;1.75;;;0.40;;
37787;SDS011;23627;53.302;-6.362;2023-05-10T13:47:40;0.95;;;0.30;;
37787;SDS011;23627;53.302;-6.362;2023-05-10T13:50:06;1.35;;;0.40;;
37787;SDS011;23627;53.302;-6.362;2023-05-10T13:52:32;1.52;;;0.40;;
37787;SDS011;23627;53.302;-6.362;2023-05-10T13:54:58;1.23;;;0.50;;
37787;SDS011;23627;53.302;-6.362;2023-05-10T13:57:24;2.17;;;0.40;;
37787;SDS011;23627;53.302;-6.362;2023-05-10T13:59:50;2.47;;;0.52;;
37787;SDS011;23627;53.302;-6.362;2023-05-10T14:02:16;1.05;;;0.40;;
37787;SDS011;23627;53.302;-6.362;2023-05-10T14:04:42;0.93;;;0.40;;
37787;SDS011;23627;53.302;-6.362;2023-05-10T14:07:07;0.75;;;0.30;;
37787;SDS011;23627;53.302;-6.362;2023-05-10T14:09:33;0.73;;;0.20;;
37787;SDS011;23627;53.302;-6.362;2023-05-10T14:11:59;0.98;;;0.30;;
37787;SDS011;23627;53.302;-6.362;2023-05-10T14:14:25;1.02;;;0.50;;
37787;SDS011;23627;53.302;-6.362;2023-05-10T14:16:51;0.73;;;0.30;;
37787;SDS011;23627;53.302;-6.362;2023-05-10T14:19:17;1.17;;;0.40;;
37787;SDS011;23627;53.302;-6.362;2023-05-10T14:21:42;1.67;;;0.40;;
37787;SDS011;23627;53.302;-6.362;2023-05-10T14:24:08;0.98;;;0.50;;
37787;SDS011;23627;53.302;-6.362;2023-05-10T14:26:34;1.33;;;0.40;;
37787;SDS011;23627;53.302;-6.362;2023-05-10T14:29:00;1.88;;;0.35;;
37787;SDS011;23627;53.302;-6.362;2023-05-10T14:31:26;1.92;;;0.50;;
37787;SDS011;23627;53.302;-6.362;2023-05-10T14:33:52;1.95;;;0.50;;
37787;SDS011;23627;53.302;-6.362;2023-05-10T14:36:18;1.75;;;0.32;;
37787;SDS011;23627;53.302;-6.362;2023-05-10T14:38:44;1.05;;;0.40;;
37787;SDS011;23627;53.302;-6.362;2023-05-10T14:41:09;1.38;;;0.60;;
37787;SDS011;23627;53.302;-6.362;2023-05-10T14:43:39;1.20;;;0.30;;
37787;SDS011;23627;53.302;-6.362;2023-05-10T14:46:05;0.70;;;0.20;;
37787;SDS011;23627;53.302;-6.362;2023-05-10T14:48:31;1.48;;;0.45;;
37787;SDS011;23627;53.302;-6.362;2023-05-10T14:50:56;3.28;;;0.40;;
37787;SDS011;23627;53.302;-6.362;2023-05-10T14:53:22;1.33;;;0.30;;
37787;SDS011;23627;53.302;-6.362;2023-05-10T14:55:48;0.65;;;0.30;;
37787;SDS011;23627;53.302;-6.362;2023-05-10T14:58:15;1.33;;;0.30;;
37787;SDS011;23627;53.302;-6.362;2023-05-10T15:00:41;1.42;;;0.43;;
37787;SDS011;23627;53.302;-6.362;2023-05-10T15:03:07;2.45;;;0.35;;
37787;SDS011;23627;53.302;-6.362;2023-05-10T15:05:33;1.52;;;0.28;;
37787;SDS011;23627;53.302;-6.362;2023-05-10T15:07:58;0.50;;;0.20;;
37787;SDS011;23627;53.302;-6.362;2023-05-10T15:10:24;1.05;;;0.35;;
37787;SDS011;23627;53.302;-6.362;2023-05-10T15:12:50;1.50;;;0.30;;
37787;SDS011;23627;53.302;-6.362;2023-05-10T15:15:16;0.95;;;0.30;;
37787;SDS011;23627;53.302;-6.362;2023-05-10T15:17:41;0.60;;;0.20;;
37787;SDS011;23627;53.302;-6.362;2023-05-10T15:20:07;1.08;;;0.30;;
37787;SDS011;23627;53.302;-6.362;2023-05-10T15:22:33;0.75;;;0.30;;
37787;SDS011;23627;53.302;-6.362;2023-05-10T15:24:59;1.55;;;0.20;;
37787;SDS011;23627;53.302;-6.362;2023-05-10T15:27:25;1.42;;;0.50;;
37787;SDS011;23627;53.302;-6.362;2023-05-10T15:29:51;1.83;;;0.35;;
37787;SDS011;23627;53.302;-6.362;2023-05-10T15:32:17;2.00;;;0.40;;
37787;SDS011;23627;53.302;-6.362;2023-05-10T15:34:43;1.02;;;0.32;;
37787;SDS011;23627;53.302;-6.362;2023-05-10T15:37:09;0.75;;;0.40;;
37787;SDS011;23627;53.302;-6.362;2023-05-10T15:39:35;1.30;;;0.30;;
37787;SDS011;23627;53.302;-6.362;2023-05-10T15:42:00;1.30;;;0.30;;